Time,TemperatureF,DewpointF,PressureIn,WindDirection,WindDirectionDegrees,WindSpeedMPH,WindSpeedGustMPH,Humidity,HourlyPrecipIn,Conditions,Clouds,dailyrainin,SolarRadiationWatts/m^2,SoftwareType,DateUTC
2013-01-20 00:04:00,15.5,6.0,30.00,WNW,294,24.0,37.0,67,0.00,,,0.00,0,weatherlink.com 1.10,2013-01-20 06:04:00,
2013-01-20 00:19:00,15.0,6.0,30.01,WNW,294,29.0,37.0,68,0.00,,,0.00,0,weatherlink.com 1.10,2013-01-20 06:19:00,
2013-01-20 00:34:00,14.5,6.0,30.02,WNW,302,32.0,34.0,68,0.00,,,0.00,0,weatherlink.com 1.10,2013-01-20 06:34:00,
2013-01-20 00:49:00,14.0,5.0,30.04,WNW,292,18.0,34.0,68,0.00,,,0.00,0,weatherlink.com 1.10,2013-01-20 06:49:00,
2013-01-20 01:04:00,13.2,4.0,30.05,NW,308,20.0,35.0,68,0.00,,,0.00,0,weatherlink.com 1.10,2013-01-20 07:04:00,
2013-01-20 01:19:00,12.7,4.0,30.06,NW,306,25.0,30.0,69,0.00,,,0.00,0,weatherlink.com 1.10,2013-01-20 07:19:00,
2013-01-20 01:34:00,12.3,4.0,30.07,NW,311,28.0,31.0,68,0.00,,,0.00,0,weatherlink.com 1.10,2013-01-20 07:34:00,
2013-01-20 01:49:00,11.9,4.0,30.09,NW,304,15.0,27.0,70,0.00,,,0.00,0,weatherlink.com 1.10,2013-01-20 07:49:00,
2013-01-20 02:04:00,11.7,4.0,30.10,NW,306,23.0,31.0,70,0.00,,,0.00,0,weatherlink.com 1.10,2013-01-20 08:04:00,
2013-01-20 02:20:00,11.4,4.0,30.12,WNW,301,14.0,27.0,71,0.00,,,0.00,0,weatherlink.com 1.10,2013-01-20 08:20:00,
2013-01-20 02:35:00,11.0,3.0,30.13,NW,306,23.0,29.0,70,0.00,,,0.00,0,weatherlink.com 1.10,2013-01-20 08:35:00,
2013-01-20 02:50:00,10.7,2.0,30.14,NW,311,15.0,30.0,69,0.00,,,0.00,0,weatherlink.com 1.10,2013-01-20 08:50:00,
2013-01-20 03:05:00,10.5,3.0,30.15,NW,306,22.0,27.0,70,0.00,,,0.00,0,weatherlink.com 1.10,2013-01-20 09:05:00,
2013-01-20 03:20:00,10.2,3.0,30.16,NW,306,17.0,26.0,71,0.00,,,0.00,0,weatherlink.com 1.10,2013-01-20 09:20:00,
2013-01-20 03:35:00,9.9,2.0,30.16,NW,306,22.0,25.0,71,0.00,,,0.00,0,weatherlink.com 1.10,2013-01-20 09:35:00,
2013-01-20 03:50:00,9.8,2.0,30.16,WNW,302,23.0,27.0,70,0.00,,,0.00,0,weatherlink.com 1.10,2013-01-20 09:50:00,
2013-01-20 04:05:00,9.6,2.0,30.17,NW,306,14.0,20.0,71,0.00,,,0.00,0,weatherlink.com 1.10,2013-01-20 10:05:00,
2013-01-20 04:20:00,9.5,2.0,30.17,NW,313,22.0,26.0,71,0.00,,,0.00,0,weatherlink.com 1.10,2013-01-20 10:20:00,
2013-01-20 04:35:00,9.2,2.0,30.18,WNW,290,20.0,20.0,72,0.00,,,0.00,0,weatherlink.com 1.10,2013-01-20 10:35:00,
2013-01-20 04:50:00,9.0,2.0,30.19,WNW,288,12.0,20.0,72,0.00,,,0.00,0,weatherlink.com 1.10,2013-01-20 10:50:00,
2013-01-20 05:05:00,8.6,2.0,30.20,NW,306,16.0,20.0,73,0.00,,,0.00,0,weatherlink.com 1.10,2013-01-20 11:05:00,
2013-01-20 05:20:00,8.5,2.0,30.20,WNW,299,18.0,20.0,73,0.00,,,0.00,0,weatherlink.com 1.10,2013-01-20 11:20:00,
2013-01-20 05:36:00,8.2,2.0,30.20,NW,308,14.0,21.0,74,0.00,,,0.00,0,weatherlink.com 1.10,2013-01-20 11:36:00,
2013-01-20 05:51:00,8.0,1.0,30.21,WNW,298,16.0,19.0,73,0.00,,,0.00,0,weatherlink.com 1.10,2013-01-20 11:51:00,
2013-01-20 06:06:00,7.8,1.0,30.23,WNW,303,14.0,17.0,74,0.00,,,0.00,0,weatherlink.com 1.10,2013-01-20 12:06:00,
2013-01-20 06:21:00,7.6,1.0,30.23,NW,314,19.0,22.0,73,0.00,,,0.00,0,weatherlink.com 1.10,2013-01-20 12:21:00,
2013-01-20 06:36:00,7.5,1.0,30.23,NW,305,18.0,20.0,73,0.00,,,0.00,0,weatherlink.com 1.10,2013-01-20 12:36:00,
2013-01-20 06:51:00,7.3,1.0,30.24,NW,310,17.0,21.0,74,0.00,,,0.00,0,weatherlink.com 1.10,2013-01-20 12:51:00,
2013-01-20 07:06:00,7.2,1.0,30.24,NW,311,18.0,20.0,75,0.00,,,0.00,0,weatherlink.com 1.10,2013-01-20 13:06:00,
2013-01-20 07:21:00,7.1,0.0,30.25,NW,308,12.0,21.0,74,0.00,,,0.00,7,weatherlink.com 1.10,2013-01-20 13:21:00,
2013-01-20 07:36:00,7.2,1.0,30.26,WNW,302,11.0,16.0,74,0.00,,,0.00,21,weatherlink.com 1.10,2013-01-20 13:36:00,
2013-01-20 07:51:00,7.3,1.0,30.26,WNW,291,12.0,15.0,74,0.00,,,0.00,26,weatherlink.com 1.10,2013-01-20 13:51:00,
2013-01-20 08:06:00,7.3,1.0,30.27,WNW,302,9.0,16.0,74,0.00,,,0.00,42,weatherlink.com 1.10,2013-01-20 14:06:00,
2013-01-20 08:21:00,7.3,1.0,30.28,NW,310,13.0,17.0,74,0.00,,,0.00,47,weatherlink.com 1.10,2013-01-20 14:21:00,
2013-01-20 08:36:00,8.0,1.0,30.28,WNW,295,13.0,15.0,74,0.00,,,0.00,178,weatherlink.com 1.10,2013-01-20 14:36:00,
2013-01-20 08:51:00,8.1,1.0,30.28,NW,310,12.0,18.0,73,0.00,,,0.00,111,weatherlink.com 1.10,2013-01-20 14:51:00,
2013-01-20 09:07:00,8.1,1.0,30.28,NW,304,10.0,13.0,73,0.00,,,0.00,107,weatherlink.com 1.10,2013-01-20 15:07:00,
2013-01-20 09:22:00,8.8,2.0,30.28,NW,317,10.0,13.0,73,0.00,,,0.00,250,weatherlink.com 1.10,2013-01-20 15:22:00,
2013-01-20 09:37:00,9.4,2.0,30.28,NW,313,7.0,13.0,71,0.00,,,0.00,250,weatherlink.com 1.10,2013-01-20 15:37:00,
2013-01-20 09:52:00,9.5,2.0,30.31,WNW,290,9.0,14.0,70,0.00,,,0.00,318,weatherlink.com 1.10,2013-01-20 15:52:00,
2013-01-20 10:07:00,10.4,2.0,30.31,WNW,288,7.0,15.0,69,0.00,,,0.00,364,weatherlink.com 1.10,2013-01-20 16:07:00,
2013-01-20 10:22:00,10.8,3.0,30.31,West,280,8.0,14.0,71,0.00,,,0.00,255,weatherlink.com 1.10,2013-01-20 16:22:00,
2013-01-20 10:37:00,11.2,3.0,30.31,WNW,303,11.0,15.0,69,0.00,,,0.00,232,weatherlink.com 1.10,2013-01-20 16:37:00,
2013-01-20 10:52:00,11.2,3.0,30.30,WNW,298,11.0,14.0,69,0.00,,,0.00,200,weatherlink.com 1.10,2013-01-20 16:52:00,
2013-01-20 11:07:00,11.8,3.0,30.31,WNW,300,9.0,14.0,69,0.00,,,0.00,167,weatherlink.com 1.10,2013-01-20 17:07:00,
2013-01-20 11:22:00,12.2,4.0,30.30,NW,304,13.0,16.0,68,0.00,,,0.00,287,weatherlink.com 1.10,2013-01-20 17:22:00,
2013-01-20 11:37:00,12.5,3.0,30.30,WNW,295,11.0,15.0,67,0.00,,,0.00,250,weatherlink.com 1.10,2013-01-20 17:37:00,
2013-01-20 11:52:00,13.0,3.0,30.29,WNW,294,12.0,16.0,65,0.00,,,0.00,227,weatherlink.com 1.10,2013-01-20 17:52:00,
2013-01-20 12:07:00,13.1,3.0,30.29,WNW,285,14.0,15.0,65,0.00,,,0.00,350,weatherlink.com 1.10,2013-01-20 18:07:00,
2013-01-20 12:22:00,13.7,4.0,30.28,WNW,301,13.0,18.0,64,0.00,,,0.00,279,weatherlink.com 1.10,2013-01-20 18:22:00,
2013-01-20 12:38:00,13.7,4.0,30.26,WNW,297,13.0,16.0,64,0.00,,,0.00,287,weatherlink.com 1.10,2013-01-20 18:38:00,
2013-01-20 12:53:00,14.0,3.0,30.26,West,260,5.0,14.0,63,0.00,,,0.00,450,weatherlink.com 1.10,2013-01-20 18:53:00,
2013-01-20 13:08:00,14.7,5.0,30.26,WNW,303,18.0,18.0,64,0.00,,,0.00,408,weatherlink.com 1.10,2013-01-20 19:08:00,
2013-01-20 13:23:00,15.0,4.0,30.27,NW,311,15.0,19.0,62,0.00,,,0.00,258,weatherlink.com 1.10,2013-01-20 19:23:00,
2013-01-20 13:38:00,14.9,3.0,30.26,WNW,296,9.0,14.0,60,0.00,,,0.00,274,weatherlink.com 1.10,2013-01-20 19:38:00,
2013-01-20 13:53:00,15.3,4.0,30.26,WNW,299,12.0,18.0,62,0.00,,,0.00,294,weatherlink.com 1.10,2013-01-20 19:53:00,
2013-01-20 14:08:00,15.0,5.0,30.26,WNW,292,6.0,17.0,64,0.00,,,0.00,197,weatherlink.com 1.10,2013-01-20 20:08:00,
2013-01-20 14:23:00,15.1,4.0,30.26,WNW,290,8.0,16.0,61,0.00,,,0.00,188,weatherlink.com 1.10,2013-01-20 20:23:00,
2013-01-20 14:53:00,15.0,4.0,30.26,NW,305,14.0,17.0,61,0.00,,,0.00,141,weatherlink.com 1.10,2013-01-20 20:53:00,
2013-01-20 15:08:00,15.3,4.0,30.26,WNW,290,13.0,17.0,61,0.00,,,0.00,134,weatherlink.com 1.10,2013-01-20 21:08:00,
2013-01-20 15:23:00,15.1,2.0,30.27,WNW,289,17.0,19.0,57,0.00,,,0.00,113,weatherlink.com 1.10,2013-01-20 21:23:00,
2013-01-20 15:39:00,14.8,3.0,30.26,WNW,294,13.0,21.0,60,0.00,,,0.00,91,weatherlink.com 1.10,2013-01-20 21:39:00,
2013-01-20 15:54:00,14.5,3.0,30.26,WNW,302,12.0,17.0,61,0.00,,,0.00,54,weatherlink.com 1.10,2013-01-20 21:54:00,
2013-01-20 16:09:00,13.9,2.0,30.26,WNW,298,12.0,18.0,59,0.00,,,0.00,40,weatherlink.com 1.10,2013-01-20 22:09:00,
2013-01-20 16:24:00,13.7,2.0,30.27,WNW,297,12.0,16.0,61,0.00,,,0.00,28,weatherlink.com 1.10,2013-01-20 22:24:00,
2013-01-20 16:39:00,13.4,3.0,30.26,WNW,290,12.0,14.0,62,0.00,,,0.00,16,weatherlink.com 1.10,2013-01-20 22:39:00,
2013-01-20 16:54:00,13.1,3.0,30.26,WNW,292,6.0,13.0,63,0.00,,,0.00,5,weatherlink.com 1.10,2013-01-20 22:54:00,
2013-01-20 17:09:00,12.8,2.0,30.26,West,269,3.0,11.0,63,0.00,,,0.00,0,weatherlink.com 1.10,2013-01-20 23:09:00,
2013-01-20 17:24:00,12.6,3.0,30.27,WNW,296,7.0,10.0,64,0.00,,,0.00,0,weatherlink.com 1.10,2013-01-20 23:24:00,
2013-01-20 17:39:00,12.4,3.0,30.27,WNW,296,8.0,9.0,65,0.00,,,0.00,0,weatherlink.com 1.10,2013-01-20 23:39:00,
2013-01-20 17:54:00,12.2,2.0,30.27,WNW,289,7.0,10.0,65,0.00,,,0.00,0,weatherlink.com 1.10,2013-01-20 23:54:00,
2013-01-20 18:09:00,12.1,2.0,30.27,West,281,6.0,8.0,64,0.00,,,0.00,0,weatherlink.com 1.10,2013-01-21 00:09:00,
2013-01-20 18:24:00,11.7,2.0,30.27,West,279,1.0,6.0,66,0.00,,,0.00,0,weatherlink.com 1.10,2013-01-21 00:24:00,
2013-01-20 18:39:00,11.3,2.0,30.27,West,273,3.0,7.0,66,0.00,,,0.00,0,weatherlink.com 1.10,2013-01-21 00:39:00,
2013-01-20 18:54:00,11.4,2.0,30.27,WNW,290,8.0,11.0,67,0.00,,,0.00,0,weatherlink.com 1.10,2013-01-21 00:54:00,
2013-01-20 19:09:00,11.3,2.0,30.26,WNW,288,6.0,10.0,67,0.00,,,0.00,0,weatherlink.com 1.10,2013-01-21 01:09:00,
2013-01-20 19:25:00,11.0,2.0,30.26,West,262,2.0,8.0,68,0.00,,,0.00,0,weatherlink.com 1.10,2013-01-21 01:25:00,
2013-01-20 19:40:00,10.9,2.0,30.26,WNW,283,2.0,7.0,68,0.00,,,0.00,0,weatherlink.com 1.10,2013-01-21 01:40:00,
2013-01-20 19:55:00,11.0,2.0,30.26,WSW,254,2.0,9.0,68,0.00,,,0.00,0,weatherlink.com 1.10,2013-01-21 01:55:00,
2013-01-20 20:10:00,11.4,2.0,30.25,West,277,5.0,11.0,67,0.00,,,0.00,0,weatherlink.com 1.10,2013-01-21 02:10:00,
2013-01-20 20:25:00,11.5,3.0,30.25,WSW,250,7.0,9.0,68,0.00,,,0.00,0,weatherlink.com 1.10,2013-01-21 02:25:00,
2013-01-20 20:40:00,11.7,3.0,30.25,WSW,251,3.0,10.0,67,0.00,,,0.00,0,weatherlink.com 1.10,2013-01-21 02:40:00,
2013-01-20 20:55:00,11.6,3.0,30.25,West,273,5.0,10.0,67,0.00,,,0.00,0,weatherlink.com 1.10,2013-01-21 02:55:00,
2013-01-20 21:10:00,11.6,3.0,30.25,WNW,285,4.0,11.0,68,0.00,,,0.00,0,weatherlink.com 1.10,2013-01-21 03:10:00,
2013-01-20 21:25:00,11.6,3.0,30.25,WNW,282,4.0,13.0,67,0.00,,,0.00,0,weatherlink.com 1.10,2013-01-21 03:25:00,
2013-01-20 21:40:00,11.4,3.0,30.24,West,277,3.0,10.0,68,0.00,,,0.00,0,weatherlink.com 1.10,2013-01-21 03:40:00,
2013-01-20 21:55:00,10.8,3.0,30.24,WNW,291,9.0,10.0,70,0.00,,,0.00,0,weatherlink.com 1.10,2013-01-21 03:55:00,
2013-01-20 22:10:00,10.5,3.0,30.23,West,279,5.0,11.0,71,0.00,,,0.00,0,weatherlink.com 1.10,2013-01-21 04:10:00,
2013-01-20 22:25:00,10.2,3.0,30.23,West,267,3.0,9.0,72,0.00,,,0.00,0,weatherlink.com 1.10,2013-01-21 04:25:00,
2013-01-20 22:41:00,10.1,3.0,30.23,West,279,6.0,12.0,73,0.00,,,0.00,0,weatherlink.com 1.10,2013-01-21 04:41:00,
2013-01-20 22:56:00,10.3,3.0,30.23,WNW,292,11.0,18.0,73,0.00,,,0.00,0,weatherlink.com 1.10,2013-01-21 04:56:00,
2013-01-20 23:11:00,10.5,3.0,30.23,WNW,302,15.0,21.0,73,0.00,,,0.00,0,weatherlink.com 1.10,2013-01-21 05:11:00,
2013-01-20 23:26:00,10.7,4.0,30.23,WNW,288,13.0,21.0,73,0.00,,,0.00,0,weatherlink.com 1.10,2013-01-21 05:26:00,
2013-01-20 23:41:00,10.5,4.0,30.23,WNW,298,17.0,19.0,75,0.00,,,0.00,0,weatherlink.com 1.10,2013-01-21 05:41:00,
2013-01-20 23:55:00,10.3,5.0,30.22,NW,305,12.0,17.0,79,0.00,,,0.00,0,weatherlink.com 1.10,2013-01-21 05:55:00,